Time;durP1;ratioP1;P1;durP2;ratioP2;P2;SDS_P1;SDS_P2;PMS_P1;PMS_P2;Temp;Humidity;BMP_temperature;BMP_pressure;BME280_temperature;BME280_humidity;BME280_pressure;Samples;Min_cycle;Max_cycle;Signal;HPM_P1;HPM_P2
2022/06/11 00:01:13;;;;;;;4.32;1.85;;;20.30;70.40;;;;;;5077376;28;20096;-39
2022/06/11 00:03:39;;;;;;;6.78;2.00;;;20.40;70.30;;;;;;5095094;28;20024;-38
2022/06/11 00:06:06;;;;;;;10.45;2.28;;;20.30;70.60;;;;;;5094398;28;20090;-39
2022/06/11 00:08:32;;;;;;;7.60;2.35;;;20.30;70.70;;;;;;5092589;28;20030;-38
2022/06/11 00:10:59;;;;;;;3.22;1.55;;;20.30;70.60;;;;;;5094121;28;20457;-38
2022/06/11 00:13:25;;;;;;;4.13;1.85;;;20.30;71.00;;;;;;5075932;28;20028;-41
2022/06/11 00:15:54;;;;;;;3.20;2.60;;;20.30;70.70;;;;;;5076521;28;20098;-40
2022/06/11 00:18:21;;;;;;;3.08;2.17;;;20.40;70.40;;;;;;5095099;28;20472;-36
2022/06/11 00:20:47;;;;;;;8.68;2.28;;;20.40;70.70;;;;;;5095671;28;20028;-38
2022/06/11 00:23:13;;;;;;;3.58;2.20;;;20.30;70.70;;;;;;5094063;28;20043;-37
2022/06/11 00:25:42;;;;;;;5.18;1.88;;;20.30;71.20;;;;;;5094245;28;20043;-37
2022/06/11 00:28:11;;;;;;;4.65;2.45;;;20.20;71.70;;;;;;5095166;28;20024;-38
2022/06/11 00:30:40;;;;;;;5.30;2.35;;;20.20;72.00;;;;;;5094722;28;20375;-37
2022/06/11 00:33:07;;;;;;;8.55;2.40;;;20.30;71.70;;;;;;5092703;28;20048;-38
2022/06/11 00:35:35;;;;;;;5.15;1.60;;;20.30;71.60;;;;;;5075707;28;20073;-38
2022/06/11 00:38:01;;;;;;;3.80;2.13;;;20.30;71.30;;;;;;5092208;28;20110;-37
2022/06/11 00:40:28;;;;;;;8.48;2.70;;;20.30;71.40;;;;;;5092849;28;20012;-38
2022/06/11 00:42:54;;;;;;;9.07;2.25;;;20.30;71.90;;;;;;5093456;28;20472;-38
2022/06/11 00:45:24;;;;;;;5.20;2.72;;;20.20;72.30;;;;;;5076167;28;20024;-38
2022/06/11 00:48:04;;;;;;;4.18;1.75;;;20.30;72.30;;;;;;5093615;28;20024;-38
2022/06/11 00:50:39;;;;;;;;;;;20.20;73.20;;;;;;5093379;28;20035;-38
2022/06/11 00:53:18;;;;;;;10.15;3.50;;;20.20;72.70;;;;;;5094978;28;19958;-37
2022/06/11 00:55:45;;;;;;;3.17;1.65;;;20.20;72.90;;;;;;5097537;28;20109;-37
2022/06/11 00:58:23;;;;;;;5.65;2.33;;;20.10;72.90;;;;;;5097488;28;20035;-37
2022/06/11 01:00:53;;;;;;;4.40;1.73;;;20.10;72.90;;;;;;5097547;28;20093;-38
2022/06/11 01:03:33;;;;;;;7.97;2.65;;;20.10;72.90;;;;;;5097127;28;20024;-37
2022/06/11 01:06:35;;;;;;;12.23;2.40;;;20.00;73.00;;;;;;5095584;28;20059;-37
2022/06/11 01:09:32;;;;;;;9.65;2.22;;;19.90;73.30;;;;;;5096667;28;20047;-38
2022/06/11 01:12:16;;;;;;;8.05;2.47;;;20.00;73.10;;;;;;5095628;28;20051;-38
2022/06/11 01:14:45;;;;;;;4.10;2.00;;;20.00;73.10;;;;;;5096208;28;20092;-37
2022/06/11 01:17:25;;;;;;;4.60;2.60;;;19.90;73.40;;;;;;5095279;28;20028;-37
2022/06/11 01:20:12;;;;;;;5.20;2.35;;;19.90;73.70;;;;;;5096814;28;20024;-38
2022/06/11 01:23:06;;;;;;;4.97;2.30;;;19.80;73.90;;;;;;5096085;28;20026;-37
2022/06/11 01:25:54;;;;;;;6.22;2.00;;;19.90;73.80;;;;;;5096902;28;20028;-37
2022/06/11 01:28:35;;;;;;;5.45;2.95;;;20.00;73.60;;;;;;5096689;28;20054;-38
2022/06/11 01:31:25;;;;;;;5.28;2.13;;;19.80;73.90;;;;;;5095100;28;20388;-37
2022/06/11 01:34:08;;;;;;;4.38;2.13;;;19.80;73.90;;;;;;5095312;28;20028;-39
2022/06/11 01:36:39;;;;;;;11.77;3.03;;;19.80;74.00;;;;;;5096437;28;20028;-38
2022/06/11 01:39:07;;;;;;;10.23;2.45;;;19.70;74.70;;;;;;5096556;28;20051;-37
2022/06/11 01:41:47;;;;;;;5.70;2.25;;;19.60;75.00;;;;;;5096428;28;20027;-38
2022/06/11 01:44:27;;;;;;;5.25;2.17;;;19.60;75.10;;;;;;5096069;28;20425;-40
2022/06/11 01:46:55;;;;;;;9.55;2.30;;;19.50;75.40;;;;;;5096484;28;20149;-38
2022/06/11 01:49:21;;;;;;;8.80;2.28;;;19.40;75.50;;;;;;5096083;28;20539;-37
2022/06/11 01:52:11;;;;;;;6.78;2.40;;;19.30;76.10;;;;;;5094829;28;20063;-40
2022/06/11 01:55:08;;;;;;;7.38;2.70;;;19.30;75.90;;;;;;5094788;28;20016;-38
2022/06/11 01:58:00;;;;;;;7.30;2.63;;;19.30;76.10;;;;;;5095351;28;20024;-38
2022/06/11 02:00:31;;;;;;;11.63;3.17;;;19.30;76.30;;;;;;5094726;28;20031;-37
2022/06/11 02:03:24;;;;;;;10.15;2.83;;;19.10;76.80;;;;;;5095918;28;20081;-42
2022/06/11 02:06:18;;;;;;;9.02;3.25;;;19.00;76.70;;;;;;5094248;28;20054;-38
2022/06/11 02:09:19;;;;;;;7.75;2.75;;;18.90;76.70;;;;;;5094493;28;20046;-37
2022/06/11 02:11:49;;;;;;;7.35;2.60;;;18.90;76.80;;;;;;5089440;28;20032;-37
2022/06/11 02:14:35;;;;;;;14.77;2.42;;;18.80;76.90;;;;;;5094475;28;20028;-38
2022/06/11 02:17:10;;;;;;;11.18;3.17;;;18.80;77.10;;;;;;5095577;28;20020;-37
2022/06/11 02:19:52;;;;;;;5.70;2.03;;;18.70;77.40;;;;;;5096161;28;20020;-39
2022/06/11 02:22:34;;;;;;;7.32;3.63;;;18.70;77.40;;;;;;5095762;28;20375;-38
2022/06/11 02:25:11;;;;;;;16.15;2.70;;;18.60;77.50;;;;;;5094293;28;20031;-37
2022/06/11 02:27:39;;;;;;;6.07;2.05;;;18.50;77.90;;;;;;5094129;28;20134;-38
2022/06/11 02:30:11;;;;;;;8.45;4.15;;;18.50;78.00;;;;;;5095789;28;20047;-38
2022/06/11 02:32:37;;;;;;;7.50;3.05;;;18.40;78.20;;;;;;5093910;28;20422;-37
2022/06/11 02:35:13;;;;;;;5.47;2.58;;;18.40;78.30;;;;;;5095159;28;20016;-38
2022/06/11 02:37:44;;;;;;;6.25;2.70;;;18.30;78.50;;;;;;5094489;28;20047;-38
2022/06/11 02:40:19;;;;;;;7.07;2.83;;;18.30;78.50;;;;;;5093991;28;20024;-38
2022/06/11 02:42:46;;;;;;;11.02;3.20;;;18.30;79.00;;;;;;5094583;28;20031;-38
2022/06/11 02:45:13;;;;;;;5.18;2.47;;;18.20;79.40;;;;;;5093583;28;20106;-39
2022/06/11 02:47:42;;;;;;;7.97;3.00;;;18.20;79.60;;;;;;5093588;28;20028;-37
2022/06/11 02:50:15;;;;;;;8.85;3.35;;;18.20;79.80;;;;;;5095284;28;20020;-38
2022/06/11 02:52:42;;;;;;;7.97;3.08;;;18.10;79.90;;;;;;5094784;28;20443;-37
2022/06/11 20:11:56;;;;;;;5.00;2.63;;;21.50;58.60;;;;;;5090620;27;20382;-50
2022/06/11 20:14:23;;;;;;;14.40;3.40;;;21.60;58.70;;;;;;5090668;28;20054;-50
2022/06/11 20:16:50;;;;;;;9.15;3.78;;;21.70;58.40;;;;;;5090926;28;20032;-49
2022/06/11 20:19:17;;;;;;;9.07;2.83;;;21.80;58.20;;;;;;5091430;28;20387;-52
2022/06/11 20:21:43;;;;;;;7.38;3.83;;;21.80;58.10;;;;;;5089130;28;20052;-50
2022/06/11 20:24:09;;;;;;;7.15;2.67;;;21.80;58.20;;;;;;5090596;28;20032;-49
2022/06/11 20:26:35;;;;;;;11.10;4.13;;;21.80;58.30;;;;;;5090199;28;20475;-50
2022/06/11 20:29:01;;;;;;;7.40;3.10;;;21.80;58.40;;;;;;5088816;28;20117;-49
2022/06/11 20:31:27;;;;;;;12.35;3.78;;;21.80;58.70;;;;;;5096855;28;20024;-50
2022/06/11 20:33:54;;;;;;;11.57;3.38;;;21.80;58.70;;;;;;5090410;28;20027;-51
2022/06/11 20:36:20;;;;;;;10.15;3.80;;;21.70;59.20;;;;;;5090543;28;20025;-49
2022/06/11 20:38:46;;;;;;;10.85;4.30;;;21.70;59.50;;;;;;5088997;28;20119;-49
2022/06/11 20:41:13;;;;;;;18.20;3.75;;;21.70;59.40;;;;;;5090177;28;20119;-49
2022/06/11 20:43:39;;;;;;;9.45;3.80;;;21.70;59.10;;;;;;5089804;28;20078;-49
2022/06/11 20:46:06;;;;;;;10.32;4.13;;;21.60;59.40;;;;;;5089835;28;20025;-49
2022/06/11 20:48:32;;;;;;;11.57;3.55;;;21.60;59.20;;;;;;5090013;28;20042;-53
2022/06/11 20:50:58;;;;;;;11.27;4.22;;;21.70;59.10;;;;;;5088459;28;20028;-50
2022/06/11 20:53:28;;;;;;;14.48;4.43;;;21.60;59.10;;;;;;5089969;28;20066;-49
2022/06/11 20:55:56;;;;;;;11.57;4.13;;;21.60;59.30;;;;;;5090307;28;20051;-50
2022/06/11 20:58:23;;;;;;;16.25;4.15;;;21.60;59.40;;;;;;5090110;28;20097;-52
2022/06/11 21:00:48;;;;;;;12.55;4.13;;;21.50;59.60;;;;;;5089890;28;20030;-50
2022/06/11 21:03:14;;;;;;;13.60;3.63;;;21.40;60.00;;;;;;5089613;28;20111;-50
2022/06/11 21:05:41;;;;;;;11.63;4.65;;;21.30;60.10;;;;;;5089969;28;20032;-49
2022/06/11 21:10:51;;;;;;;14.05;4.18;;;21.30;60.20;;;;;;5089722;28;20051;-50
2022/06/11 21:13:17;;;;;;;8.73;4.05;;;21.30;60.40;;;;;;5071743;28;20021;-50
2022/06/11 21:15:42;;;;;;;14.15;3.92;;;21.30;60.60;;;;;;5088340;28;20062;-48
2022/06/11 21:18:08;;;;;;;12.73;4.45;;;21.20;60.50;;;;;;5089845;28;20031;-49
2022/06/11 21:20:37;;;;;;;13.65;3.80;;;21.10;60.80;;;;;;5089676;28;20036;-49
2022/06/11 21:23:04;;;;;;;9.98;4.80;;;21.10;60.80;;;;;;5077300;28;20491;-52
2022/06/11 21:25:35;;;;;;;9.35;4.70;;;21.00;60.80;;;;;;5075846;28;20025;-49
2022/06/11 21:28:01;;;;;;;17.75;3.90;;;20.80;61.70;;;;;;5075772;28;20024;-50
2022/06/11 21:30:27;;;;;;;11.52;3.78;;;20.70;60.80;;;;;;5076034;28;20033;-49
2022/06/11 21:32:53;;;;;;;9.27;4.10;;;20.70;60.90;;;;;;5075973;28;20100;-48
2022/06/11 21:35:24;;;;;;;9.25;3.42;;;20.50;60.80;;;;;;5076127;28;20346;-49
2022/06/11 21:37:51;;;;;;;10.60;3.90;;;20.40;61.10;;;;;;5075805;28;20017;-49
2022/06/11 21:40:17;;;;;;;10.02;3.72;;;20.40;61.00;;;;;;5075432;28;20062;-50
2022/06/11 21:42:43;;;;;;;10.43;4.00;;;20.30;61.10;;;;;;5075548;28;20025;-51
2022/06/11 21:45:12;;;;;;;12.05;3.95;;;20.30;61.20;;;;;;5074178;28;20495;-50
2022/06/11 21:47:39;;;;;;;15.23;4.32;;;20.20;61.50;;;;;;5075406;28;20025;-49
2022/06/11 21:50:11;;;;;;;13.70;4.07;;;20.10;61.80;;;;;;5075746;28;20037;-52
2022/06/11 21:52:38;;;;;;;13.30;3.25;;;20.10;61.70;;;;;;5076050;28;20016;-50
2022/06/11 21:55:05;;;;;;;9.32;3.35;;;19.90;61.50;;;;;;5075647;28;20025;-51
2022/06/11 21:57:31;;;;;;;11.00;4.82;;;19.80;60.80;;;;;;5075458;28;20381;-49
2022/06/11 21:59:57;;;;;;;7.00;2.80;;;19.80;59.90;;;;;;5075551;28;20318;-50
2022/06/11 22:02:26;;;;;;;14.52;3.40;;;19.70;60.20;;;;;;5075777;28;20471;-53
2022/06/11 22:04:54;;;;;;;11.55;2.83;;;19.60;59.30;;;;;;5057444;28;20027;-50
2022/06/11 22:07:22;;;;;;;8.07;2.97;;;19.60;58.90;;;;;;5076296;28;20028;-50
2022/06/11 22:09:51;;;;;;;16.55;3.55;;;19.60;58.80;;;;;;5078140;28;20055;-51
2022/06/11 22:12:18;;;;;;;8.80;3.10;;;19.60;58.30;;;;;;5075696;28;20028;-48
2022/06/11 22:14:45;;;;;;;5.18;2.63;;;19.50;58.50;;;;;;5076066;28;20431;-50
2022/06/11 22:17:12;;;;;;;8.50;2.58;;;19.50;58.60;;;;;;5075864;28;20100;-50
2022/06/11 22:19:39;;;;;;;13.40;2.75;;;19.50;58.50;;;;;;5075773;28;20031;-51
2022/06/11 22:22:25;;;;;;;9.80;3.47;;;19.60;58.40;;;;;;5076287;28;20016;-52
2022/06/11 22:25:22;;;;;;;13.02;3.78;;;19.50;58.40;;;;;;5076642;28;20058;-48
2022/06/11 22:27:48;;;;;;;7.75;2.85;;;19.40;58.90;;;;;;5075883;28;20520;-51
2022/06/11 22:30:15;;;;;;;9.35;3.60;;;19.30;59.20;;;;;;5075814;28;20428;-52
2022/06/11 22:32:43;;;;;;;8.38;3.65;;;19.30;59.30;;;;;;5075982;28;20088;-50
2022/06/11 22:35:24;;;;;;;8.70;2.67;;;19.30;59.30;;;;;;5057168;28;20025;-49
2022/06/11 22:37:50;;;;;;;10.50;3.95;;;19.20;59.50;;;;;;5075888;28;20026;-51
2022/06/11 22:40:17;;;;;;;14.73;4.25;;;19.30;59.40;;;;;;5075549;28;20443;-48
2022/06/11 22:42:43;;;;;;;7.85;3.13;;;19.30;59.40;;;;;;5075591;28;20032;-48
2022/06/11 22:45:14;;;;;;;10.90;3.38;;;19.40;59.30;;;;;;5075687;28;20029;-49
2022/06/11 22:47:40;;;;;;;12.00;3.28;;;19.20;61.00;;;;;;5076027;28;20036;-48
2022/06/11 22:50:07;;;;;;;12.20;3.83;;;19.20;61.40;;;;;;5073543;28;20111;-49
2022/06/11 22:52:32;;;;;;;9.43;3.50;;;19.10;62.50;;;;;;5075427;28;20027;-49
2022/06/11 22:54:58;;;;;;;7.10;4.35;;;18.80;64.00;;;;;;5075372;28;20384;-50
2022/06/11 22:57:24;;;;;;;6.25;3.72;;;18.70;65.30;;;;;;5076049;28;20017;-51
2022/06/11 22:59:52;;;;;;;8.40;3.38;;;18.50;66.20;;;;;;5075855;28;20040;-49
2022/06/11 23:02:18;;;;;;;7.57;3.10;;;18.50;66.20;;;;;;5074396;28;20040;-51
2022/06/11 23:04:43;;;;;;;12.05;3.92;;;18.40;66.80;;;;;;5076224;28;20024;-51
2022/06/11 23:07:09;;;;;;;15.20;5.07;;;18.30;67.10;;;;;;5074968;28;20103;-52
2022/06/11 23:09:35;;;;;;;11.35;3.65;;;18.30;68.10;;;;;;5073213;28;20028;-48
2022/06/11 23:12:02;;;;;;;8.95;3.95;;;18.30;68.40;;;;;;5075283;28;20024;-50
2022/06/11 23:14:30;;;;;;;7.85;3.28;;;18.20;69.00;;;;;;5075314;28;20039;-52
2022/06/11 23:16:59;;;;;;;13.25;3.50;;;18.10;69.60;;;;;;5075378;28;20027;-49
2022/06/11 23:19:25;;;;;;;9.15;3.38;;;17.90;70.10;;;;;;5075186;28;20020;-53
2022/06/11 23:21:51;;;;;;;8.27;3.28;;;17.80;70.50;;;;;;5075294;28;20035;-49
2022/06/11 23:24:17;;;;;;;9.30;3.78;;;17.80;70.50;;;;;;5073968;28;20024;-50
2022/06/11 23:26:42;;;;;;;8.02;4.05;;;17.80;70.60;;;;;;5072884;28;20029;-51
2022/06/11 23:29:08;;;;;;;16.05;4.70;;;17.80;71.10;;;;;;5073947;28;20387;-49
2022/06/11 23:31:37;;;;;;;13.25;6.20;;;17.80;70.50;;;;;;5073697;28;20025;-51
2022/06/11 23:34:03;;;;;;;19.52;7.90;;;18.00;70.40;;;;;;5055698;28;20028;-49
2022/06/11 23:36:29;;;;;;;15.27;6.90;;;18.10;69.70;;;;;;5073302;28;20487;-49
2022/06/11 23:38:55;;;;;;;15.50;6.78;;;18.00;70.20;;;;;;5073336;28;20499;-49
2022/06/11 23:41:21;;;;;;;19.70;6.57;;;17.90;71.00;;;;;;5072226;28;20052;-49
2022/06/11 23:43:47;;;;;;;12.88;6.53;;;17.80;71.40;;;;;;5072261;28;20043;-50
2022/06/11 23:46:14;;;;;;;19.10;7.13;;;17.80;71.70;;;;;;5071831;28;20032;-49
2022/06/11 23:48:43;;;;;;;15.30;6.85;;;17.80;71.80;;;;;;5071987;28;20028;-48
2022/06/11 23:51:15;;;;;;;7.22;5.00;;;17.80;71.80;;;;;;5074554;28;20464;-50
2022/06/11 23:53:41;;;;;;;9.02;4.82;;;17.80;72.00;;;;;;5073626;28;20025;-49
2022/06/11 23:56:08;;;;;;;12.68;4.88;;;17.70;71.90;;;;;;5072508;28;20077;-50
2022/06/11 23:58:34;;;;;;;13.80;5.68;;;17.40;72.80;;;;;;5074376;28;20017;-50
